Hudson, Illinois
Current Conditions -  °F | °C
As of 12:56 AM on Thursday 23 Oct 2014 (Local Time) from KBMI Reporting Station
Light Rain Light Rain  
Wind Chill: 35°   Ceiling: Unl
Heat Index: 40°   Visibility: 10mi
Dew Point: 35°   Wind: 7mph
Humidity: 82%   Direction: 150°SSE
Pressure: 30.25"   Gusts: NA
Location:  40.61°N, 88.99°W
Report Text: KBMI 230556Z AUTO 15006KT 10SM -RA CLR 04/02 A3025 RMK AO2 58007 60000 T00440016 10105 20033 401610016 RAB18 P0000 SLP248
Loading
Personal Weather Stations






























Interactive Weather Map
Tropical Storm Tracking
New forecast layout! Learn more

10-Day Weather Forecast

Advertisements
Track Severe Weather on mobile